Time;durP1;ratioP1;P1;durP2;ratioP2;P2;SDS_P1;SDS_P2;PMS_P1;PMS_P2;Temp;Humidity;BMP_temperature;BMP_pressure;BME280_temperature;BME280_humidity;BME280_pressure;Samples;Min_cycle;Max_cycle;Signal;HPM_P1;HPM_P2
2023/04/30 00:01:43;;;;;;;7.07;4.55;;;7.70;99.90;;;;;;5052385;28;20048;-76
2023/04/30 00:04:09;;;;;;;8.23;3.90;;;7.70;99.90;;;;;;5053260;28;20081;-76
2023/04/30 00:06:34;;;;;;;7.57;4.28;;;7.70;99.90;;;;;;5053615;28;20041;-76
2023/04/30 00:09:00;;;;;;;6.85;3.92;;;7.50;99.90;;;;;;5054241;28;20478;-75
2023/04/30 00:11:26;;;;;;;6.53;4.05;;;7.50;99.90;;;;;;5054368;28;20458;-76
2023/04/30 00:13:52;;;;;;;6.00;3.65;;;7.40;99.90;;;;;;5054363;28;20049;-76
2023/04/30 00:16:18;;;;;;;6.07;3.72;;;7.50;99.90;;;;;;5053466;28;20041;-76
2023/04/30 00:18:44;;;;;;;6.65;3.88;;;7.40;99.90;;;;;;5053434;28;20041;-76
2023/04/30 00:21:10;;;;;;;9.32;4.10;;;7.40;99.90;;;;;;5053997;28;20055;-76
2023/04/30 00:23:36;;;;;;;7.88;4.47;;;7.40;99.90;;;;;;5053610;28;20041;-76
2023/04/30 00:26:01;;;;;;;7.93;4.85;;;7.30;99.90;;;;;;5053438;28;20041;-76
2023/04/30 00:28:27;;;;;;;9.90;4.82;;;7.30;99.90;;;;;;5053028;28;20041;-76
2023/04/30 00:30:53;;;;;;;7.82;4.60;;;7.30;99.90;;;;;;5053415;28;20048;-76
2023/04/30 00:33:20;;;;;;;9.00;4.72;;;7.40;99.90;;;;;;5053489;28;20049;-76
2023/04/30 00:35:46;;;;;;;9.82;5.10;;;7.40;99.90;;;;;;5051866;28;20464;-76
2023/04/30 00:38:12;;;;;;;9.45;5.45;;;7.30;99.90;;;;;;5053344;28;20053;-76
2023/04/30 00:40:39;;;;;;;8.75;4.90;;;7.30;99.90;;;;;;5035733;28;20095;-76
2023/04/30 00:43:05;;;;;;;6.95;4.70;;;7.40;99.90;;;;;;5053269;28;20171;-76
2023/04/30 00:45:30;;;;;;;6.38;4.70;;;7.30;99.90;;;;;;5053289;28;20504;-76
2023/04/30 00:47:56;;;;;;;7.75;4.93;;;7.40;99.90;;;;;;5053718;28;20048;-76
2023/04/30 00:50:22;;;;;;;7.63;5.10;;;7.40;99.90;;;;;;5053216;28;20132;-76
2023/04/30 00:52:48;;;;;;;7.13;4.72;;;7.30;99.90;;;;;;5051860;28;20060;-76
2023/04/30 00:55:14;;;;;;;7.93;4.95;;;7.30;99.90;;;;;;5052942;28;20045;-76
2023/04/30 00:57:40;;;;;;;7.57;4.75;;;7.20;99.90;;;;;;5053165;28;20048;-76
2023/04/30 01:00:10;;;;;;;9.35;5.05;;;7.20;99.90;;;;;;5052959;28;20373;-76
2023/04/30 01:02:40;;;;;;;8.98;4.25;;;7.10;99.90;;;;;;5053286;28;20053;-76
2023/04/30 01:05:06;;;;;;;5.85;3.70;;;7.00;99.90;;;;;;5052987;28;20197;-76
2023/04/30 01:07:34;;;;;;;6.10;4.45;;;6.90;99.90;;;;;;5052867;28;20486;-76
2023/04/30 01:10:00;;;;;;;5.20;3.70;;;6.90;99.90;;;;;;5051876;28;20060;-76
2023/04/30 01:12:42;;;;;;;6.53;4.00;;;6.80;99.90;;;;;;5052973;28;20567;-76
2023/04/30 01:15:37;;;;;;;10.40;3.78;;;6.70;99.90;;;;;;5052596;28;20469;-76
2023/04/30 01:18:11;;;;;;;15.40;3.40;;;6.60;99.90;;;;;;5056654;28;20135;-76
2023/04/30 01:20:44;;;;;;;50.90;7.32;;;6.30;99.90;;;;;;5056617;28;20056;-76
2023/04/30 01:23:33;;;;;;;6.22;3.38;;;6.10;99.90;;;;;;5055520;28;20049;-76
2023/04/30 01:26:17;;;;;;;5.15;2.72;;;6.00;99.90;;;;;;5056658;28;20076;-76
2023/04/30 01:28:44;;;;;;;6.82;3.00;;;6.00;99.90;;;;;;5055392;28;20049;-75
2023/04/30 01:31:15;;;;;;;8.75;4.18;;;5.80;99.90;;;;;;5056352;28;20048;-75
2023/04/30 01:33:41;;;;;;;5.78;3.70;;;5.70;99.90;;;;;;5055835;28;20516;-75
2023/04/30 01:36:30;;;;;;;6.50;3.45;;;5.60;99.90;;;;;;5056288;28;20060;-75
2023/04/30 01:39:40;;;;;;;6.03;3.70;;;5.40;99.90;;;;;;5000582;28;20513;-76
2023/04/30 01:42:15;;;;;;;5.55;3.75;;;5.40;99.90;;;;;;4967921;28;20075;-75
2023/04/30 01:45:05;;;;;;;9.30;3.83;;;5.30;99.90;;;;;;5056325;28;20044;-75
2023/04/30 01:47:45;;;;;;;21.90;4.72;;;5.20;99.90;;;;;;5054982;28;20045;-75
2023/04/30 01:50:38;;;;;;;8.93;4.40;;;5.20;99.90;;;;;;5056523;28;20401;-75
2023/04/30 01:53:09;;;;;;;7.18;4.95;;;5.20;99.90;;;;;;5057040;28;20386;-75
2023/04/30 01:56:04;;;;;;;6.03;4.25;;;5.20;99.90;;;;;;5055243;28;20041;-75
2023/04/30 01:58:30;;;;;;;8.55;4.75;;;5.30;99.90;;;;;;5051058;28;20115;-75
2023/04/30 02:00:56;;;;;;;6.97;4.53;;;5.20;99.90;;;;;;5054986;28;20053;-75
2023/04/30 02:03:22;;;;;;;5.70;3.60;;;5.30;99.90;;;;;;5054966;28;20385;-75
2023/04/30 02:05:49;;;;;;;6.75;3.58;;;5.30;99.90;;;;;;5055122;28;20051;-75
2023/04/30 02:08:15;;;;;;;6.25;3.58;;;5.30;99.90;;;;;;5055850;28;20049;-75
2023/04/30 02:10:41;;;;;;;4.80;3.03;;;5.20;99.90;;;;;;5056087;28;20041;-75
2023/04/30 02:13:06;;;;;;;5.82;4.10;;;5.10;99.90;;;;;;5055095;28;20385;-75
2023/04/30 02:15:32;;;;;;;6.57;3.75;;;5.10;99.90;;;;;;5055387;28;20052;-75
2023/04/30 02:17:58;;;;;;;7.07;4.63;;;5.10;99.90;;;;;;5037752;28;20044;-75
2023/04/30 02:20:23;;;;;;;8.52;4.00;;;5.00;99.90;;;;;;5056435;28;20049;-75
2023/04/30 02:22:50;;;;;;;7.57;4.18;;;5.00;99.90;;;;;;5055552;28;20517;-75
2023/04/30 02:25:15;;;;;;;5.43;3.25;;;4.90;99.90;;;;;;5054288;28;20411;-75
2023/04/30 02:27:41;;;;;;;5.75;3.53;;;4.90;99.90;;;;;;5054283;28;20048;-75
2023/04/30 02:30:07;;;;;;;5.78;4.20;;;5.10;99.90;;;;;;5055876;28;20045;-75
2023/04/30 02:32:33;;;;;;;7.88;4.50;;;5.00;99.90;;;;;;5055656;28;20053;-75
2023/04/30 02:34:59;;;;;;;7.88;4.97;;;5.10;99.90;;;;;;5054005;28;20056;-75
2023/04/30 02:37:25;;;;;;;12.10;5.47;;;5.20;99.90;;;;;;5055507;28;20382;-75
2023/04/30 02:39:51;;;;;;;5.45;4.05;;;5.40;99.90;;;;;;5055470;28;20055;-75
2023/04/30 02:42:17;;;;;;;6.85;4.20;;;5.40;99.90;;;;;;5055185;28;20037;-75
2023/04/30 02:44:43;;;;;;;23.25;4.60;;;5.70;99.90;;;;;;5054823;28;20059;-75
2023/04/30 02:47:09;;;;;;;3.75;2.70;;;5.20;99.90;;;;;;5054078;28;20093;-75
2023/04/30 02:49:35;;;;;;;4.72;2.83;;;5.10;99.90;;;;;;5055103;28;20049;-75
2023/04/30 02:52:00;;;;;;;5.57;4.03;;;5.00;99.90;;;;;;5054989;28;20049;-75
2023/04/30 02:54:26;;;;;;;4.78;3.30;;;4.90;99.90;;;;;;5055341;28;20044;-75
2023/04/30 02:56:52;;;;;;;5.25;3.30;;;4.80;99.90;;;;;;5055518;28;20049;-75
2023/04/30 02:59:18;;;;;;;5.25;3.67;;;4.80;99.90;;;;;;5054880;28;20090;-74
2023/04/30 03:01:44;;;;;;;6.75;4.00;;;4.70;99.90;;;;;;5055346;28;20120;-75
2023/04/30 03:04:09;;;;;;;8.68;4.75;;;4.70;99.90;;;;;;5054689;28;20103;-75
2023/04/30 03:06:35;;;;;;;5.85;3.47;;;4.80;99.90;;;;;;5054669;28;20593;-75
2023/04/30 03:09:01;;;;;;;8.60;4.60;;;4.80;99.90;;;;;;5054591;28;20044;-75
2023/04/30 03:11:27;;;;;;;6.53;4.07;;;4.80;99.90;;;;;;5054598;28;20095;-75
2023/04/30 03:13:52;;;;;;;7.75;5.53;;;4.90;99.90;;;;;;5054557;28;20056;-75
2023/04/30 03:16:19;;;;;;;7.05;5.00;;;4.90;99.90;;;;;;5054726;28;20047;-75
2023/04/30 03:18:47;;;;;;;7.60;5.07;;;4.90;99.90;;;;;;5054492;28;20045;-75
2023/04/30 03:21:12;;;;;;;7.60;4.72;;;4.90;99.90;;;;;;5055206;28;20085;-75
2023/04/30 03:23:38;;;;;;;7.05;4.95;;;5.00;99.90;;;;;;5054213;28;20087;-75
2023/04/30 03:26:04;;;;;;;8.73;5.13;;;4.90;99.90;;;;;;5054300;28;20120;-75
2023/04/30 03:28:30;;;;;;;11.85;5.68;;;4.90;99.90;;;;;;5054109;28;20052;-75
2023/04/30 03:30:55;;;;;;;9.63;5.40;;;4.90;99.90;;;;;;5054111;28;20048;-75
2023/04/30 03:33:21;;;;;;;19.08;5.20;;;4.90;99.90;;;;;;5054634;28;20096;-75
2023/04/30 03:35:49;;;;;;;22.17;5.35;;;4.90;99.90;;;;;;5054268;28;20049;-75
2023/04/30 03:38:14;;;;;;;31.75;5.18;;;4.90;99.90;;;;;;5054228;28;20136;-76
2023/04/30 03:40:40;;;;;;;26.90;5.78;;;4.80;99.90;;;;;;5036244;28;20136;-76
2023/04/30 03:43:06;;;;;;;31.35;4.65;;;4.70;99.90;;;;;;5054041;28;20045;-76
2023/04/30 03:45:31;;;;;;;25.02;4.90;;;4.70;99.90;;;;;;5054052;28;20102;-76
2023/04/30 03:47:57;;;;;;;10.50;3.95;;;4.80;99.90;;;;;;5053956;28;20520;-75
2023/04/30 03:50:23;;;;;;;4.70;3.10;;;4.80;99.90;;;;;;5052945;28;20113;-75
2023/04/30 03:52:49;;;;;;;11.68;3.72;;;4.60;99.90;;;;;;5053720;28;20046;-75
2023/04/30 03:55:15;;;;;;;5.95;3.45;;;4.60;99.90;;;;;;5053882;28;20497;-76
2023/04/30 03:57:41;;;;;;;5.97;3.58;;;4.50;99.90;;;;;;5054061;28;20060;-75
2023/04/30 04:00:09;;;;;;;5.85;3.63;;;4.50;99.90;;;;;;5054258;28;20057;-75
2023/04/30 04:02:35;;;;;;;8.50;3.47;;;4.40;99.90;;;;;;5053821;28;20051;-75
2023/04/30 04:05:02;;;;;;;6.28;3.92;;;4.40;99.90;;;;;;5053905;28;20051;-75
2023/04/30 04:07:28;;;;;;;25.35;5.22;;;4.50;99.90;;;;;;5053462;28;20057;-75
2023/04/30 04:09:53;;;;;;;26.00;5.13;;;4.40;99.90;;;;;;5053490;28;20106;-75
2023/04/30 04:12:19;;;;;;;23.38;5.47;;;4.40;99.90;;;;;;5053621;28;20072;-75
2023/04/30 04:14:45;;;;;;;8.88;4.90;;;4.40;99.90;;;;;;5053996;28;20049;-75
2023/04/30 04:17:10;;;;;;;11.35;4.20;;;4.40;99.90;;;;;;5054096;28;20102;-75
2023/04/30 04:19:36;;;;;;;13.95;4.88;;;4.40;99.90;;;;;;5052861;28;20051;-75
2023/04/30 04:22:03;;;;;;;19.05;5.10;;;4.40;99.90;;;;;;5053474;28;20462;-75
2023/04/30 04:24:29;;;;;;;15.10;5.07;;;4.50;99.90;;;;;;5052741;28;20084;-75
2023/04/30 04:26:54;;;;;;;11.40;4.47;;;4.50;99.90;;;;;;5054049;28;20087;-75
2023/04/30 04:29:20;;;;;;;28.25;5.00;;;4.50;99.90;;;;;;5053387;28;20067;-75
2023/04/30 04:31:47;;;;;;;12.55;4.03;;;4.40;99.90;;;;;;5053786;28;20053;-75
2023/04/30 04:34:13;;;;;;;30.35;5.20;;;4.20;99.90;;;;;;5053935;28;20041;-75
2023/04/30 04:36:40;;;;;;;13.77;4.65;;;4.20;99.90;;;;;;5053266;28;20052;-75
2023/04/30 04:39:06;;;;;;;10.65;4.03;;;4.20;99.90;;;;;;5053903;28;20382;-75
2023/04/30 04:41:34;;;;;;;9.18;4.38;;;4.10;99.90;;;;;;5052212;28;20154;-75
2023/04/30 04:44:00;;;;;;;6.60;4.40;;;4.00;99.90;;;;;;5053824;28;20045;-75
2023/04/30 04:46:27;;;;;;;5.47;3.80;;;4.00;99.90;;;;;;5054071;28;20080;-75
2023/04/30 04:48:53;;;;;;;4.00;3.33;;;4.30;99.90;;;;;;5054019;28;20382;-75
2023/04/30 04:51:19;;;;;;;4.88;3.92;;;4.20;99.90;;;;;;5053532;28;20389;-75
2023/04/30 04:53:45;;;;;;;5.00;3.83;;;4.40;99.90;;;;;;5057302;28;20099;-75
2023/04/30 04:56:10;;;;;;;5.28;3.67;;;4.50;99.90;;;;;;5039299;28;20436;-75
2023/04/30 04:58:36;;;;;;;4.90;3.95;;;4.70;99.90;;;;;;5057092;28;20060;-75
2023/04/30 05:01:03;;;;;;;5.88;4.20;;;4.80;99.90;;;;;;5056117;28;20397;-75
2023/04/30 05:03:30;;;;;;;4.40;3.72;;;4.90;99.90;;;;;;5056874;28;20102;-75
2023/04/30 05:05:55;;;;;;;5.68;3.78;;;5.00;99.90;;;;;;5057495;28;20041;-75
2023/04/30 05:08:21;;;;;;;5.55;3.92;;;5.10;99.90;;;;;;5056064;28;20049;-75
2023/04/30 05:10:47;;;;;;;4.72;3.63;;;5.10;99.90;;;;;;5055672;28;20052;-75
2023/04/30 05:13:13;;;;;;;4.50;3.70;;;5.30;99.90;;;;;;5056833;28;20053;-75
2023/04/30 05:15:39;;;;;;;5.18;3.65;;;5.30;99.90;;;;;;5055943;28;20052;-75
2023/04/30 05:18:04;;;;;;;5.53;3.97;;;5.40;99.90;;;;;;5056816;28;20382;-75
2023/04/30 05:20:30;;;;;;;6.38;4.07;;;5.40;99.90;;;;;;5056743;28;20059;-75
2023/04/30 05:22:55;;;;;;;4.30;3.45;;;5.50;99.90;;;;;;5055656;28;20061;-75
2023/04/30 05:25:21;;;;;;;5.07;3.70;;;5.50;99.90;;;;;;5056379;28;20045;-75
2023/04/30 05:27:47;;;;;;;5.03;4.10;;;5.60;99.90;;;;;;5056579;28;20045;-76
2023/04/30 05:30:14;;;;;;;5.32;4.47;;;5.70;99.90;;;;;;5057017;28;20417;-75
2023/04/30 05:32:40;;;;;;;7.00;4.60;;;5.90;99.90;;;;;;5056648;28;20107;-75
2023/04/30 05:35:07;;;;;;;8.95;4.80;;;5.90;99.90;;;;;;5056407;28;20092;-74
2023/04/30 05:37:32;;;;;;;6.45;4.30;;;6.00;99.90;;;;;;5056477;28;20045;-75
2023/04/30 05:39:58;;;;;;;6.28;4.20;;;6.10;99.90;;;;;;5055301;28;20102;-75
2023/04/30 05:42:24;;;;;;;8.63;4.63;;;6.30;99.90;;;;;;5056859;28;20036;-74
2023/04/30 05:44:50;;;;;;;6.10;4.10;;;6.30;99.90;;;;;;5055999;28;20129;-74
2023/04/30 05:47:15;;;;;;;7.15;4.70;;;6.30;99.90;;;;;;5055851;28;20068;-75
2023/04/30 05:49:41;;;;;;;7.18;4.68;;;6.40;99.90;;;;;;5055496;28;20053;-75
2023/04/30 05:52:07;;;;;;;8.93;4.55;;;6.50;99.90;;;;;;5056941;28;20358;-75
2023/04/30 05:54:32;;;;;;;9.10;4.97;;;6.60;99.90;;;;;;5055427;28;20098;-75
2023/04/30 05:56:58;;;;;;;8.38;4.60;;;6.70;99.90;;;;;;5055981;28;20145;-75
2023/04/30 05:59:24;;;;;;;8.18;4.75;;;6.80;99.90;;;;;;5056482;28;20592;-76
2023/04/30 06:01:51;;;;;;;9.15;4.50;;;6.90;99.90;;;;;;5056012;28;20080;-75
2023/04/30 06:04:16;;;;;;;7.47;4.45;;;7.00;99.90;;;;;;5054310;28;20072;-75
2023/04/30 06:06:42;;;;;;;6.80;3.97;;;7.10;99.90;;;;;;5056569;28;20124;-75
2023/04/30 06:09:08;;;;;;;8.13;4.10;;;7.10;99.90;;;;;;5055803;28;20092;-75
2023/04/30 06:11:36;;;;;;;7.13;4.10;;;7.20;99.90;;;;;;5056384;28;20051;-75
2023/04/30 06:14:02;;;;;;;7.45;4.13;;;7.40;99.90;;;;;;5056302;28;20053;-76
2023/04/30 06:16:28;;;;;;;6.18;3.70;;;7.50;99.90;;;;;;5055649;28;20045;-76
2023/04/30 06:18:54;;;;;;;5.38;3.50;;;7.60;99.90;;;;;;5055734;28;20077;-76
2023/04/30 06:21:19;;;;;;;7.72;4.00;;;7.70;99.90;;;;;;5055920;28;20385;-75
2023/04/30 06:23:45;;;;;;;7.30;3.55;;;7.80;99.90;;;;;;5038024;28;20397;-76
2023/04/30 06:26:13;;;;;;;9.75;4.22;;;7.90;99.90;;;;;;5055071;28;20044;-76
2023/04/30 06:28:39;;;;;;;6.28;3.83;;;8.10;99.90;;;;;;5056047;28;20399;-76
2023/04/30 06:31:05;;;;;;;6.38;3.15;;;8.20;99.90;;;;;;5056238;28;20041;-75
2023/04/30 06:33:31;;;;;;;5.43;3.05;;;8.30;99.90;;;;;;5054891;28;20575;-75
2023/04/30 06:35:57;;;;;;;5.45;2.78;;;8.40;99.90;;;;;;5055671;28;20049;-76
2023/04/30 06:38:22;;;;;;;6.68;2.88;;;8.50;99.90;;;;;;5055402;28;20396;-76
2023/04/30 06:40:48;;;;;;;5.47;2.47;;;8.60;99.90;;;;;;5054302;28;20045;-76
2023/04/30 06:43:15;;;;;;;4.40;2.30;;;8.60;99.90;;;;;;5055257;28;20052;-76
2023/04/30 06:45:40;;;;;;;6.82;2.90;;;8.70;99.90;;;;;;5055176;28;20080;-75
2023/04/30 06:48:06;;;;;;;6.82;2.60;;;8.80;99.90;;;;;;5055082;28;20158;-76
2023/04/30 06:50:32;;;;;;;5.68;2.70;;;8.90;99.90;;;;;;5055664;28;20182;-76
2023/04/30 06:52:58;;;;;;;5.40;2.55;;;8.90;99.90;;;;;;5054990;28;20072;-75
2023/04/30 06:55:23;;;;;;;5.53;2.03;;;9.00;99.90;;;;;;5054133;28;20045;-75
2023/04/30 06:57:49;;;;;;;7.22;3.20;;;9.00;99.90;;;;;;5054193;28;20477;-76
2023/04/30 07:00:15;;;;;;;6.32;2.40;;;9.00;99.90;;;;;;5054888;28;20553;-76
2023/04/30 07:02:41;;;;;;;8.73;2.53;;;9.00;99.90;;;;;;5053547;28;20129;-76
2023/04/30 07:05:07;;;;;;;6.28;2.42;;;9.10;99.90;;;;;;5055257;28;20132;-76
2023/04/30 07:07:33;;;;;;;7.57;2.20;;;9.20;99.90;;;;;;5054993;28;20175;-76
2023/04/30 07:09:59;;;;;;;6.05;2.22;;;9.30;99.90;;;;;;5054012;28;20071;-76
2023/04/30 07:12:25;;;;;;;5.15;2.30;;;9.40;99.90;;;;;;5054367;28;20056;-75
2023/04/30 07:14:51;;;;;;;4.88;2.22;;;9.40;99.90;;;;;;5053564;28;20080;-75
2023/04/30 07:17:16;;;;;;;5.72;2.25;;;9.50;99.90;;;;;;5055128;28;20422;-75
2023/04/30 07:19:42;;;;;;;7.72;2.47;;;9.50;99.90;;;;;;5054116;28;20099;-76
2023/04/30 07:22:08;;;;;;;6.10;2.67;;;9.60;99.90;;;;;;5054418;28;20045;-76
2023/04/30 07:24:34;;;;;;;11.13;3.13;;;9.70;99.90;;;;;;5036607;28;20057;-75
2023/04/30 07:27:01;;;;;;;7.15;2.05;;;9.80;99.90;;;;;;5053409;28;20055;-76
2023/04/30 07:29:28;;;;;;;4.68;2.10;;;9.90;99.90;;;;;;5054361;28;20404;-75
2023/04/30 07:31:55;;;;;;;6.53;2.60;;;10.00;99.90;;;;;;5054104;28;20067;-76
2023/04/30 07:34:20;;;;;;;7.20;2.17;;;10.10;99.90;;;;;;5053073;28;20044;-75
2023/04/30 07:36:47;;;;;;;5.30;2.00;;;10.10;99.90;;;;;;5054848;28;20048;-76
2023/04/30 07:39:13;;;;;;;7.55;2.10;;;10.20;99.90;;;;;;5054415;28;20055;-75
2023/04/30 07:41:39;;;;;;;6.13;2.15;;;10.20;99.90;;;;;;5054085;28;20478;-75
2023/04/30 07:44:04;;;;;;;6.30;2.38;;;10.30;99.90;;;;;;5053978;28;20041;-75
2023/04/30 07:46:30;;;;;;;6.72;2.38;;;10.30;99.90;;;;;;5054030;28;20378;-75
2023/04/30 07:48:56;;;;;;;5.68;2.00;;;10.30;99.90;;;;;;5053969;28;20096;-76
2023/04/30 07:51:22;;;;;;;5.38;2.38;;;10.40;99.90;;;;;;5053925;28;20496;-75
2023/04/30 07:53:48;;;;;;;6.45;2.45;;;10.40;99.90;;;;;;5053752;28;20497;-79
2023/04/30 07:56:13;;;;;;;6.55;2.30;;;10.50;99.90;;;;;;5053787;28;20048;-77
2023/04/30 07:58:40;;;;;;;6.93;2.20;;;10.60;99.90;;;;;;5053683;28;20040;-81
2023/04/30 08:01:06;;;;;;;5.03;2.30;;;10.70;99.90;;;;;;5053706;28;20057;-81
2023/04/30 08:03:32;;;;;;;6.75;2.45;;;10.90;99.90;;;;;;5053171;28;20091;-82
2023/04/30 08:05:57;;;;;;;6.72;2.40;;;10.90;99.90;;;;;;5052516;28;20072;-80
2023/04/30 08:08:23;;;;;;;5.85;2.22;;;11.00;99.90;;;;;;5053582;28;20045;-80
2023/04/30 08:10:49;;;;;;;4.57;2.30;;;11.10;99.90;;;;;;5053546;28;20128;-75
2023/04/30 08:13:15;;;;;;;4.10;2.13;;;11.10;99.90;;;;;;5054307;28;20056;-75
2023/04/30 08:15:41;;;;;;;4.15;2.03;;;11.10;99.90;;;;;;5054193;28;20377;-76
2023/04/30 08:18:06;;;;;;;7.85;2.20;;;11.20;99.90;;;;;;5053537;28;20045;-76
2023/04/30 08:20:32;;;;;;;6.32;2.00;;;11.30;99.90;;;;;;5053516;28;20052;-79
2023/04/30 08:22:58;;;;;;;7.75;2.03;;;11.40;99.90;;;;;;5053961;28;20071;-80
2023/04/30 08:25:24;;;;;;;3.88;1.63;;;11.50;99.90;;;;;;5053165;28;20060;-81
2023/04/30 08:27:50;;;;;;;6.05;2.10;;;11.60;99.90;;;;;;5053385;28;20041;-75
2023/04/30 08:30:15;;;;;;;5.57;2.50;;;11.60;99.90;;;;;;5053270;28;20044;-78
2023/04/30 08:32:41;;;;;;;4.43;1.85;;;11.70;99.90;;;;;;5053404;28;20060;-76
2023/04/30 08:35:08;;;;;;;5.88;2.15;;;11.80;99.90;;;;;;5053155;28;20044;-76
2023/04/30 08:37:34;;;;;;;4.03;1.90;;;11.80;99.90;;;;;;5051964;28;20053;-77
2023/04/30 08:39:59;;;;;;;4.95;1.95;;;12.00;99.90;;;;;;5053262;28;20045;-75
2023/04/30 08:42:30;;;;;;;5.32;1.98;;;12.10;99.90;;;;;;5053272;28;20049;-78
2023/04/30 08:44:55;;;;;;;6.53;2.10;;;12.20;99.90;;;;;;5053362;28;20088;-77
2023/04/30 08:47:23;;;;;;;4.07;1.70;;;12.30;99.90;;;;;;5053808;28;20095;-76
2023/04/30 08:49:49;;;;;;;5.50;1.80;;;12.40;99.90;;;;;;5053726;28;20056;-77
2023/04/30 08:52:14;;;;;;;4.35;1.98;;;12.50;99.90;;;;;;5053437;28;20076;-76
2023/04/30 08:54:43;;;;;;;6.78;1.83;;;12.50;99.90;;;;;;5053064;28;20044;-82
2023/04/30 08:57:09;;;;;;;4.80;2.00;;;12.50;99.90;;;;;;5053687;28;20049;-82
2023/04/30 08:59:35;;;;;;;7.88;2.05;;;12.50;99.90;;;;;;5053150;28;20084;-82
2023/04/30 09:02:01;;;;;;;5.07;1.70;;;12.50;99.90;;;;;;5053020;28;20111;-78
2023/04/30 09:04:27;;;;;;;5.45;2.05;;;12.60;99.90;;;;;;5053052;28;20053;-79
2023/04/30 09:06:59;;;;;;;6.55;1.70;;;12.70;99.90;;;;;;5053066;28;20386;-78
2023/04/30 09:09:29;;;;;;;4.47;1.95;;;12.80;99.90;;;;;;5052770;28;20379;-81
2023/04/30 09:12:16;;;;;;;6.30;2.03;;;12.80;99.90;;;;;;5052902;28;20049;-77
2023/04/30 09:14:58;;;;;;;5.03;1.90;;;12.90;99.90;;;;;;5051674;28;20041;-77
2023/04/30 09:17:24;;;;;;;4.47;2.20;;;12.70;99.90;;;;;;5053730;28;20045;-79
2023/04/30 09:19:51;;;;;;;6.95;1.77;;;12.80;99.90;;;;;;5052631;28;20561;-78
2023/04/30 09:22:22;;;;;;;4.38;2.35;;;12.90;99.90;;;;;;5053691;28;20049;-78
2023/04/30 09:24:49;;;;;;;6.65;1.98;;;12.90;99.90;;;;;;5051838;28;20478;-79
2023/04/30 09:27:22;;;;;;;7.72;2.05;;;13.00;99.90;;;;;;5052863;28;20045;-77
2023/04/30 09:29:48;;;;;;;4.75;1.80;;;13.10;99.90;;;;;;5052748;28;20135;-78
2023/04/30 09:32:14;;;;;;;3.83;1.90;;;13.20;99.90;;;;;;5052800;28;20137;-76
2023/04/30 09:34:42;;;;;;;5.10;1.80;;;13.30;99.90;;;;;;5052705;28;20397;-78
2023/04/30 09:37:08;;;;;;;4.38;1.88;;;13.40;99.90;;;;;;5051841;28;20045;-78
2023/04/30 09:40:03;;;;;;;4.47;1.67;;;13.60;99.90;;;;;;5056602;28;20052;-76
2023/04/30 09:42:29;;;;;;;3.90;1.90;;;13.70;99.90;;;;;;5056338;28;20044;-76
2023/04/30 09:44:56;;;;;;;5.03;1.92;;;13.80;99.90;;;;;;5056264;28;20041;-76
2023/04/30 09:47:22;;;;;;;6.13;1.88;;;13.90;99.90;;;;;;5056198;28;20462;-78
2023/04/30 09:49:50;;;;;;;4.25;1.50;;;13.80;99.90;;;;;;5056179;28;20087;-76
2023/04/30 09:52:17;;;;;;;3.97;1.92;;;13.70;99.90;;;;;;5056230;28;20049;-75
2023/04/30 09:54:44;;;;;;;3.88;1.77;;;13.60;99.90;;;;;;5056097;28;20080;-76
2023/04/30 09:57:12;;;;;;;6.80;1.98;;;13.70;99.90;;;;;;5056113;28;20060;-76
2023/04/30 09:59:43;;;;;;;5.70;1.77;;;13.90;99.90;;;;;;5056631;28;20048;-76
2023/04/30 10:02:09;;;;;;;4.50;1.50;;;14.20;99.90;;;;;;5056821;28;20382;-76
2023/04/30 10:04:36;;;;;;;4.15;1.70;;;14.30;99.90;;;;;;5055941;28;20049;-76
2023/04/30 10:07:11;;;;;;;3.97;1.67;;;14.40;99.90;;;;;;5055845;28;20041;-77
2023/04/30 10:09:49;;;;;;;5.28;2.00;;;14.40;99.90;;;;;;5055934;28;20048;-77
2023/04/30 10:12:19;;;;;;;2.72;1.30;;;14.60;99.90;;;;;;5055809;28;20175;-76
2023/04/30 10:14:53;;;;;;;3.53;1.60;;;14.80;99.90;;;;;;5055699;28;20098;-77
2023/04/30 10:17:22;;;;;;;3.20;1.63;;;15.30;99.90;;;;;;5056296;28;20045;-76
2023/04/30 10:19:50;;;;;;;2.97;1.70;;;15.60;99.90;;;;;;5054394;28;20527;-76
2023/04/30 10:22:18;;;;;;;4.32;1.67;;;15.40;99.90;;;;;;5055243;28;20525;-78
2023/04/30 10:24:46;;;;;;;4.75;1.98;;;15.30;99.90;;;;;;5055545;28;20037;-76
2023/04/30 10:27:12;;;;;;;5.95;2.10;;;15.30;99.90;;;;;;5055435;28;20060;-76
2023/04/30 10:29:37;;;;;;;2.97;1.85;;;15.30;99.90;;;;;;5055224;28;20060;-78
2023/04/30 10:32:05;;;;;;;5.05;2.20;;;15.30;99.90;;;;;;5053512;28;20052;-76
2023/04/30 10:34:54;;;;;;;6.30;2.45;;;15.20;99.90;;;;;;5054354;28;20045;-78
2023/04/30 10:37:34;;;;;;;4.93;1.98;;;15.30;99.90;;;;;;5055233;28;20055;-77
2023/04/30 10:40:01;;;;;;;7.15;2.13;;;15.80;99.90;;;;;;5055911;28;20191;-78
2023/04/30 10:42:27;;;;;;;5.30;1.92;;;16.30;99.90;;;;;;5056313;28;20049;-78
2023/04/30 10:44:52;;;;;;;3.53;1.73;;;16.60;99.90;;;;;;5055502;28;20056;-75
2023/04/30 10:47:18;;;;;;;5.68;2.10;;;16.80;99.90;;;;;;5055082;28;20045;-73
2023/04/30 10:49:50;;;;;;;4.82;2.10;;;17.00;99.90;;;;;;5054108;28;20076;-74
2023/04/30 10:52:27;;;;;;;4.68;2.00;;;17.10;99.90;;;;;;5055006;28;20485;-73
2023/04/30 10:54:53;;;;;;;3.15;1.98;;;17.00;99.90;;;;;;5054873;28;20087;-74
2023/04/30 10:57:20;;;;;;;4.40;2.05;;;17.00;99.90;;;;;;5054159;28;20083;-75
2023/04/30 11:00:13;;;;;;;4.82;2.17;;;17.10;99.90;;;;;;5053854;28;20049;-71
2023/04/30 11:02:47;;;;;;;4.57;1.88;;;17.20;99.90;;;;;;5054977;28;20045;-72
2023/04/30 11:05:17;;;;;;;3.88;1.95;;;17.20;99.90;;;;;;5054849;28;20076;-72
2023/04/30 11:07:50;;;;;;;4.18;2.17;;;17.30;99.90;;;;;;5054637;28;20049;-74
2023/04/30 11:10:16;;;;;;;4.80;2.20;;;17.20;99.90;;;;;;5053615;28;20414;-76
2023/04/30 11:12:48;;;;;;;4.47;2.15;;;17.00;99.90;;;;;;5054694;28;20057;-76
2023/04/30 11:15:16;;;;;;;3.47;1.70;;;17.10;99.90;;;;;;5054889;28;20432;-71
2023/04/30 11:17:47;;;;;;;3.55;1.50;;;17.00;99.90;;;;;;5054262;28;20501;-79
2023/04/30 11:20:18;;;;;;;3.38;1.63;;;17.20;99.90;;;;;;5054253;28;20044;-74
2023/04/30 11:22:44;;;;;;;4.03;2.00;;;17.30;99.90;;;;;;5054115;28;20053;-73
2023/04/30 11:25:14;;;;;;;3.58;1.77;;;17.40;99.90;;;;;;5054222;28;20480;-75
2023/04/30 11:27:43;;;;;;;5.55;1.77;;;17.60;99.90;;;;;;5054214;28;20078;-72
2023/04/30 11:30:13;;;;;;;2.53;1.60;;;17.60;99.90;;;;;;5054154;28;20056;-75
2023/04/30 11:32:40;;;;;;;5.72;1.80;;;17.70;99.90;;;;;;5054190;28;20057;-75
2023/04/30 11:35:06;;;;;;;3.28;1.90;;;18.00;99.90;;;;;;5054010;28;20045;-75
2023/04/30 11:37:35;;;;;;;3.00;1.60;;;18.20;99.90;;;;;;5054648;28;20343;-75
2023/04/30 11:40:03;;;;;;;3.65;1.80;;;18.30;99.90;;;;;;5053968;28;20049;-73
2023/04/30 11:42:38;;;;;;;3.53;1.60;;;18.30;99.90;;;;;;5053845;28;20056;-75
2023/04/30 11:45:19;;;;;;;3.28;1.65;;;18.20;99.90;;;;;;5054426;28;20044;-77
2023/04/30 11:47:53;;;;;;;4.35;1.80;;;18.30;99.90;;;;;;5053949;28;20045;-74
2023/04/30 11:50:26;;;;;;;3.67;2.05;;;18.30;99.90;;;;;;5036245;28;20040;-76
2023/04/30 11:52:53;;;;;;;4.28;1.70;;;18.40;99.90;;;;;;5054097;28;20048;-72
2023/04/30 11:55:21;;;;;;;3.00;2.00;;;18.50;99.90;;;;;;5053605;28;20037;-73
2023/04/30 11:57:49;;;;;;;4.00;2.00;;;18.60;99.90;;;;;;5053651;28;20051;-75
2023/04/30 12:00:17;;;;;;;4.13;1.80;;;18.80;99.90;;;;;;5053003;28;20084;-74
2023/04/30 12:02:44;;;;;;;3.13;1.40;;;19.00;99.90;;;;;;5053712;28;20090;-77
2023/04/30 12:05:19;;;;;;;3.15;1.67;;;19.10;99.90;;;;;;5053383;28;20049;-77
2023/04/30 12:07:54;;;;;;;3.92;1.90;;;19.30;99.90;;;;;;5053554;28;20045;-77
2023/04/30 12:10:21;;;;;;;2.88;1.70;;;19.40;99.90;;;;;;5054150;28;20044;-77
2023/04/30 12:12:48;;;;;;;3.25;1.98;;;19.50;99.90;;;;;;5053593;28;20060;-77
2023/04/30 12:15:25;;;;;;;4.22;1.88;;;19.80;99.90;;;;;;5053119;28;20121;-77
2023/04/30 12:17:52;;;;;;;3.38;1.80;;;20.20;99.90;;;;;;5054307;28;20043;-76
2023/04/30 12:20:20;;;;;;;3.33;1.83;;;20.20;99.90;;;;;;5053822;28;20048;-77
2023/04/30 12:22:47;;;;;;;3.92;2.00;;;20.20;99.90;;;;;;5053554;28;20052;-76
2023/04/30 12:25:18;;;;;;;4.03;1.90;;;20.20;99.90;;;;;;5052622;28;20118;-77
2023/04/30 12:27:50;;;;;;;3.97;2.10;;;20.40;99.90;;;;;;5054342;28;20071;-76
2023/04/30 12:30:20;;;;;;;3.63;1.90;;;20.40;99.90;;;;;;5052414;28;20056;-73
2023/04/30 12:32:49;;;;;;;3.65;1.88;;;20.60;99.90;;;;;;5053659;28;20061;-71
2023/04/30 12:35:20;;;;;;;3.05;1.90;;;20.80;99.90;;;;;;5053241;28;20048;-76
2023/04/30 12:37:49;;;;;;;3.97;1.67;;;21.00;99.90;;;;;;5054139;28;20041;-78
2023/04/30 12:40:15;;;;;;;2.67;1.20;;;21.00;99.90;;;;;;5053282;28;20049;-74
2023/04/30 12:42:45;;;;;;;3.78;1.50;;;21.20;99.90;;;;;;5052416;28;20075;-73
2023/04/30 12:45:12;;;;;;;3.17;1.52;;;21.50;99.90;;;;;;5053681;28;20041;-75
2023/04/30 12:47:41;;;;;;;3.42;1.40;;;21.70;99.90;;;;;;5052884;28;20528;-75
2023/04/30 12:50:10;;;;;;;2.47;1.25;;;22.00;99.90;;;;;;5053265;28;20528;-76
2023/04/30 12:52:36;;;;;;;3.70;1.52;;;22.40;99.90;;;;;;5053186;28;20049;-74
2023/04/30 12:55:16;;;;;;;2.50;1.48;;;22.60;99.90;;;;;;5053058;28;20548;-74
2023/04/30 12:58:07;;;;;;;2.88;1.48;;;23.10;99.90;;;;;;5053192;28;20052;-75